Terminal Aerodrome Forecast
Issued by NWS Melbourne, FL

Home | Current Version | Previous Version | Text Only | Print | Product List | Glossary On
Versions: 1 2 3 4 5 6 7 8 9 10 11 12 13 14 15 16 17 18 19
000
FTUS42 KMLB 160500
TAFVRB
TAF
KVRB 160539Z 1606/1706 VRB03KT P6SM SCT080 BKN250
      TEMPO 1606/1607 29007KT -SHRA BKN040
     FM161400 29005KT P6SM SCT030 BKN250
     FM161900 08008KT P6SM VCTS SCT040CB BKN080
     FM170100 26004KT P6SM VCSH SCT080 OVC150=

USA.gov is the U.S. government's official web portal to all federal, state and local government web resources and services.